Time;durP1;ratioP1;P1;durP2;ratioP2;P2;SDS_P1;SDS_P2;PMS_P1;PMS_P2;Temp;Humidity;BMP_temperature;BMP_pressure;BME280_temperature;BME280_humidity;BME280_pressure;Samples;Min_cycle;Max_cycle;Signal;HPM_P1;HPM_P2
2022/09/14 00:01:23;;;;;;;5.68;1.52;;;;;;;;;;5026652;28;20390;-59
2022/09/14 00:03:53;;;;;;;2.42;1.38;;;;;;;;;;5031057;28;20479;-59
2022/09/14 00:06:19;;;;;;;5.18;1.75;;;;;;;;;;5029679;28;20029;-59
2022/09/14 00:08:49;;;;;;;4.53;1.83;;;;;;;;;;5028507;28;20030;-59
2022/09/14 00:11:15;;;;;;;6.25;1.35;;;;;;;;;;5027352;28;20076;-59
2022/09/14 00:13:42;;;;;;;6.38;1.63;;;;;;;;;;5019299;28;20026;-59
2022/09/14 00:16:11;;;;;;;3.35;1.90;;;;;;;;;;5030652;28;20018;-59
2022/09/14 00:18:37;;;;;;;3.63;1.48;;;;;;;;;;5030657;28;20515;-59
2022/09/14 00:21:04;;;;;;;7.38;1.60;;;;;;;;;;5029042;28;20025;-60
2022/09/14 00:23:30;;;;;;;8.13;1.65;;;;;;;;;;5030746;28;20045;-59
2022/09/14 00:26:01;;;;;;;4.88;1.50;;;;;;;;;;5029567;28;20033;-59
2022/09/14 00:28:27;;;;;;;7.00;1.48;;;;;;;;;;5030438;28;20033;-59
2022/09/14 00:30:53;;;;;;;6.07;1.60;;;;;;;;;;5030578;28;20034;-60
2022/09/14 00:33:19;;;;;;;3.13;1.50;;;;;;;;;;5029934;28;20029;-59
2022/09/14 00:35:45;;;;;;;6.18;1.63;;;;;;;;;;5027303;28;20033;-60
2022/09/14 00:38:11;;;;;;;3.10;1.70;;;;;;;;;;5032239;28;20029;-59
2022/09/14 00:40:38;;;;;;;10.45;1.90;;;;;;;;;;5023608;28;20033;-59
2022/09/14 00:43:05;;;;;;;4.15;1.60;;;;;;;;;;5028943;28;20033;-59
2022/09/14 00:45:31;;;;;;;5.25;1.52;;;;;;;;;;5030573;28;20037;-58
2022/09/14 00:47:57;;;;;;;6.03;1.40;;;;;;;;;;5025995;28;20037;-59
2022/09/14 00:50:23;;;;;;;2.92;1.55;;;;;;;;;;5029444;28;20030;-59
2022/09/14 00:52:50;;;;;;;4.75;1.60;;;;;;;;;;5030418;28;20026;-60
2022/09/14 00:55:19;;;;;;;4.47;2.00;;;;;;;;;;5030029;28;20072;-59
2022/09/14 00:57:47;;;;;;;3.72;1.40;;;;;;;;;;5029246;28;20025;-59
2022/09/14 01:00:16;;;;;;;8.05;1.90;;;;;;;;;;5029996;28;20087;-59
2022/09/14 01:02:42;;;;;;;5.07;1.25;;;;;;;;;;5029006;28;20543;-59
2022/09/14 01:05:09;;;;;;;6.03;1.77;;;;;;;;;;5029781;28;20064;-60
2022/09/14 01:07:49;;;;;;;4.63;1.20;;;;;;;;;;5030112;28;20056;-59
2022/09/14 01:10:22;;;;;;;4.10;1.10;;;;;;;;;;5032392;28;20459;-60
2022/09/14 01:13:07;;;;;;;4.10;1.58;;;;;;;;;;5031978;28;20083;-59
2022/09/14 01:15:36;;;;;;;6.35;1.77;;;;;;;;;;5033121;28;20484;-59
2022/09/14 01:18:09;;;;;;;7.75;1.60;;;;;;;;;;5033477;28;20042;-59
2022/09/14 01:20:37;;;;;;;4.68;1.85;;;;;;;;;;5033465;28;20045;-60
2022/09/14 01:23:08;;;;;;;5.60;1.90;;;;;;;;;;5026631;28;20045;-60
2022/09/14 01:25:53;;;;;;;4.82;1.35;;;;;;;;;;5032121;28;20037;-60
2022/09/14 01:28:24;;;;;;;1.83;1.25;;;;;;;;;;5034291;28;20075;-59
2022/09/14 01:30:51;;;;;;;4.38;1.85;;;;;;;;;;5032746;28;20021;-59
2022/09/14 01:33:33;;;;;;;8.20;2.10;;;;;;;;;;5034050;28;20032;-59
2022/09/14 01:36:02;;;;;;;3.88;1.83;;;;;;;;;;5033025;28;20030;-59
2022/09/14 01:38:31;;;;;;;4.82;1.60;;;;;;;;;;5033851;28;20059;-59
2022/09/14 01:40:58;;;;;;;10.05;2.10;;;;;;;;;;5032675;28;20030;-59
2022/09/14 01:43:26;;;;;;;4.07;1.85;;;;;;;;;;5032776;28;20037;-60
2022/09/14 01:46:12;;;;;;;6.65;2.28;;;;;;;;;;5034194;28;20025;-60
2022/09/14 01:48:44;;;;;;;2.75;1.50;;;;;;;;;;5033748;28;20033;-59
2022/09/14 01:51:12;;;;;;;4.32;1.40;;;;;;;;;;5033662;28;20025;-59
2022/09/14 01:53:40;;;;;;;5.97;1.88;;;;;;;;;;5033153;28;20037;-59
2022/09/14 01:56:10;;;;;;;6.05;1.95;;;;;;;;;;5033419;28;20086;-60
2022/09/14 01:58:40;;;;;;;4.50;1.98;;;;;;;;;;5031729;28;20025;-59
2022/09/14 02:01:07;;;;;;;4.65;1.75;;;;;;;;;;5026076;28;20029;-59
2022/09/14 02:03:36;;;;;;;7.57;1.63;;;;;;;;;;5032935;28;20477;-60
2022/09/14 02:06:13;;;;;;;5.07;1.65;;;;;;;;;;5032742;28;20029;-60
2022/09/14 02:08:39;;;;;;;5.10;1.70;;;;;;;;;;5033761;28;20029;-60
2022/09/14 02:11:05;;;;;;;4.50;1.38;;;;;;;;;;5032360;28;20026;-59
2022/09/14 02:13:31;;;;;;;3.90;1.73;;;;;;;;;;5033381;28;20087;-59
2022/09/14 02:15:57;;;;;;;4.50;1.83;;;;;;;;;;5025975;28;20041;-59
2022/09/14 02:18:23;;;;;;;7.70;1.98;;;;;;;;;;5033416;28;20248;-59
2022/09/14 02:20:52;;;;;;;4.05;1.75;;;;;;;;;;5032847;28;20105;-59
2022/09/14 02:23:18;;;;;;;6.10;1.95;;;;;;;;;;5025049;28;20029;-60
2022/09/14 02:25:45;;;;;;;5.35;1.67;;;;;;;;;;5032819;28;20461;-59
2022/09/14 02:28:11;;;;;;;5.25;1.95;;;;;;;;;;5032652;28;20096;-59
2022/09/14 02:30:43;;;;;;;5.22;2.00;;;;;;;;;;5032300;28;20037;-60
2022/09/14 02:33:17;;;;;;;7.95;2.22;;;;;;;;;;5030972;28;20032;-60
2022/09/14 02:36:06;;;;;;;5.65;1.83;;;;;;;;;;5031726;28;20025;-59
2022/09/14 02:38:46;;;;;;;4.13;1.52;;;;;;;;;;5026391;28;20118;-59
2022/09/14 02:41:16;;;;;;;11.07;2.28;;;;;;;;;;5020855;28;20030;-59
2022/09/14 02:43:53;;;;;;;5.68;2.13;;;;;;;;;;5022284;28;20395;-59
2022/09/14 02:46:42;;;;;;;4.10;1.80;;;;;;;;;;5030805;28;20033;-59
2022/09/14 02:49:15;;;;;;;5.18;2.00;;;;;;;;;;5023290;28;20022;-60
2022/09/14 02:51:49;;;;;;;9.25;2.13;;;;;;;;;;5030833;28;20087;-59
2022/09/14 02:54:14;;;;;;;;;;;;;;;;;;5027522;28;20048;-59
2022/09/14 02:56:40;;;;;;;3.45;1.80;;;;;;;;;;5031107;28;19944;-59
2022/09/14 02:59:06;;;;;;;4.72;2.15;;;;;;;;;;5023937;28;20068;-60
2022/09/14 03:01:33;;;;;;;9.35;1.90;;;;;;;;;;5028848;28;20508;-60
2022/09/14 03:03:59;;;;;;;4.88;2.42;;;;;;;;;;5027441;28;20041;-59
2022/09/14 03:06:25;;;;;;;8.40;2.03;;;;;;;;;;5028763;28;20026;-60
2022/09/14 03:08:51;;;;;;;8.55;2.10;;;;;;;;;;5026810;28;20477;-60
2022/09/14 03:11:17;;;;;;;3.28;1.83;;;;;;;;;;5029727;28;20500;-60
2022/09/14 03:13:43;;;;;;;4.70;1.75;;;;;;;;;;5025082;28;20087;-60
2022/09/14 03:16:11;;;;;;;5.38;2.30;;;;;;;;;;5031435;28;20400;-59
2022/09/14 03:18:37;;;;;;;5.93;2.20;;;;;;;;;;5025039;28;20045;-59
2022/09/14 03:21:07;;;;;;;8.18;2.00;;;;;;;;;;5032060;28;20095;-59
2022/09/14 03:23:38;;;;;;;7.53;1.95;;;;;;;;;;5025145;28;20386;-59
2022/09/14 03:26:11;;;;;;;5.30;2.15;;;;;;;;;;5032177;28;20607;-60
2022/09/14 03:28:37;;;;;;;8.57;2.15;;;;;;;;;;5029795;28;20045;-59
2022/09/14 03:31:04;;;;;;;6.15;2.40;;;;;;;;;;5031271;28;20033;-59
2022/09/14 03:33:30;;;;;;;9.30;2.28;;;;;;;;;;5031698;28;20565;-59
2022/09/14 03:35:56;;;;;;;7.35;2.20;;;;;;;;;;5031141;28;20037;-60
2022/09/14 03:38:23;;;;;;;4.68;2.30;;;;;;;;;;5031871;28;20029;-60
2022/09/14 03:40:49;;;;;;;5.95;2.30;;;;;;;;;;5027315;28;20029;-59
2022/09/14 03:43:15;;;;;;;6.32;2.50;;;;;;;;;;5030918;28;20026;-60
2022/09/14 03:45:41;;;;;;;7.75;2.50;;;;;;;;;;5031939;28;20041;-59
2022/09/14 03:48:07;;;;;;;5.18;2.03;;;;;;;;;;5031509;28;20029;-60
2022/09/14 03:50:33;;;;;;;6.88;2.30;;;;;;;;;;5031290;28;20026;-59
2022/09/14 03:52:59;;;;;;;6.13;2.60;;;;;;;;;;5031710;28;20048;-60
2022/09/14 03:55:25;;;;;;;9.18;2.55;;;;;;;;;;5031883;28;20072;-59
2022/09/14 03:57:55;;;;;;;7.30;2.35;;;;;;;;;;5028035;28;20014;-60
2022/09/14 04:00:21;;;;;;;6.38;2.05;;;;;;;;;;5030960;28;20033;-59
2022/09/14 04:02:47;;;;;;;3.20;2.00;;;;;;;;;;5020306;28;20033;-59
2022/09/14 04:05:13;;;;;;;3.15;2.10;;;;;;;;;;5030696;28;20021;-59
2022/09/14 04:07:39;;;;;;;9.20;2.22;;;;;;;;;;5031481;28;20033;-59
2022/09/14 04:10:06;;;;;;;6.32;2.35;;;;;;;;;;5021654;28;20395;-59
2022/09/14 04:12:35;;;;;;;3.97;1.98;;;;;;;;;;5025886;28;20400;-59
2022/09/14 04:15:01;;;;;;;6.68;2.22;;;;;;;;;;5020809;28;20030;-59
2022/09/14 04:17:27;;;;;;;3.45;2.00;;;;;;;;;;5026000;28;20111;-60
2022/09/14 04:19:53;;;;;;;9.40;2.20;;;;;;;;;;5030859;28;20037;-59
2022/09/14 04:22:19;;;;;;;3.00;2.20;;;;;;;;;;5029391;28;20026;-59
2022/09/14 04:24:46;;;;;;;9.13;3.13;;;;;;;;;;5022531;28;20048;-59
2022/09/14 04:27:12;;;;;;;3.85;2.40;;;;;;;;;;5027972;28;20025;-59
2022/09/14 04:29:38;;;;;;;5.57;2.35;;;;;;;;;;5030921;28;20034;-60
2022/09/14 04:32:04;;;;;;;6.82;2.63;;;;;;;;;;5028861;28;20018;-59
2022/09/14 04:34:30;;;;;;;6.72;2.58;;;;;;;;;;5030754;28;20497;-60
2022/09/14 04:36:56;;;;;;;5.70;2.70;;;;;;;;;;5031188;28;20025;-59
2022/09/14 04:39:22;;;;;;;6.85;2.42;;;;;;;;;;5028489;28;20025;-60
2022/09/14 04:41:48;;;;;;;4.63;2.40;;;;;;;;;;5028856;28;20083;-60
2022/09/14 04:44:14;;;;;;;7.03;2.08;;;;;;;;;;5021147;28;20661;-59
2022/09/14 04:46:41;;;;;;;3.38;2.35;;;;;;;;;;5026554;28;20052;-59
2022/09/14 04:49:07;;;;;;;6.13;2.78;;;;;;;;;;5027455;28;20116;-60
2022/09/14 04:51:34;;;;;;;4.45;2.22;;;;;;;;;;5023731;28;20032;-59
2022/09/14 04:54:01;;;;;;;4.80;2.25;;;;;;;;;;5027845;28;20025;-59
2022/09/14 04:56:27;;;;;;;5.28;2.35;;;;;;;;;;5025964;28;20029;-59
2022/09/14 04:58:55;;;;;;;6.00;2.25;;;;;;;;;;5027150;28;20476;-59
2022/09/14 05:01:23;;;;;;;6.88;2.22;;;;;;;;;;5029160;28;20022;-59
2022/09/14 05:03:49;;;;;;;4.55;2.95;;;;;;;;;;5026280;28;20037;-59
2022/09/14 05:06:16;;;;;;;3.80;2.22;;;;;;;;;;5027626;28;20038;-60
2022/09/14 05:08:43;;;;;;;2.75;1.95;;;;;;;;;;5023295;28;20094;-59
2022/09/14 05:11:11;;;;;;;5.78;2.55;;;;;;;;;;5027810;28;20145;-59
2022/09/14 05:13:37;;;;;;;3.60;2.03;;;;;;;;;;5028489;28;20447;-60
2022/09/14 05:16:10;;;;;;;10.13;3.05;;;;;;;;;;5021845;28;20030;-60
2022/09/14 05:18:37;;;;;;;3.30;2.22;;;;;;;;;;5027671;28;20500;-59
2022/09/14 05:21:04;;;;;;;4.28;2.50;;;;;;;;;;5020755;28;20108;-60
2022/09/14 05:23:30;;;;;;;7.22;2.53;;;;;;;;;;5022186;28;20432;-60
2022/09/14 05:25:57;;;;;;;6.65;2.60;;;;;;;;;;5020155;28;20109;-59
2022/09/14 05:28:23;;;;;;;5.43;2.20;;;;;;;;;;5029678;28;20381;-59
2022/09/14 05:30:49;;;;;;;6.75;2.60;;;;;;;;;;5023857;28;20036;-59
2022/09/14 05:33:15;;;;;;;6.35;3.00;;;;;;;;;;5022638;28;20101;-59
2022/09/14 05:35:41;;;;;;;6.68;2.95;;;;;;;;;;5027175;28;20064;-59
2022/09/14 05:38:07;;;;;;;9.70;2.65;;;;;;;;;;5029085;28;20444;-59
2022/09/14 05:40:33;;;;;;;6.30;2.47;;;;;;;;;;5030040;28;20030;-59
2022/09/14 05:42:59;;;;;;;6.47;2.88;;;;;;;;;;5026999;28;20072;-59
2022/09/14 05:45:25;;;;;;;7.05;2.60;;;;;;;;;;5029661;28;20048;-59
2022/09/14 05:47:51;;;;;;;8.40;2.50;;;;;;;;;;5030144;28;20112;-59
2022/09/14 05:50:17;;;;;;;5.95;2.83;;;;;;;;;;5026599;28;20076;-59
2022/09/14 05:52:43;;;;;;;6.13;2.75;;;;;;;;;;5030498;28;20041;-60
2022/09/14 05:55:09;;;;;;;6.50;2.40;;;;;;;;;;5031638;28;20021;-60
2022/09/14 05:57:35;;;;;;;6.97;2.30;;;;;;;;;;5034116;28;20052;-60
2022/09/14 06:00:01;;;;;;;5.43;2.50;;;;;;;;;;5030417;28;20088;-59
2022/09/14 06:02:27;;;;;;;6.95;3.15;;;;;;;;;;5025677;28;20106;-59
2022/09/14 06:04:53;;;;;;;5.10;2.80;;;;;;;;;;5033079;28;20056;-59
2022/09/14 06:07:19;;;;;;;5.22;2.60;;;;;;;;;;5032234;28;20033;-59
2022/09/14 06:09:45;;;;;;;4.55;2.58;;;;;;;;;;5010032;28;20041;-59
2022/09/14 06:12:13;;;;;;;7.32;2.50;;;;;;;;;;5025557;28;20026;-60
2022/09/14 06:14:39;;;;;;;6.65;2.65;;;;;;;;;;5033523;28;20421;-59
2022/09/14 06:17:05;;;;;;;4.55;2.50;;;;;;;;;;5033580;28;20021;-60
2022/09/14 06:19:31;;;;;;;8.40;2.70;;;;;;;;;;5032967;28;20052;-60
2022/09/14 06:21:57;;;;;;;8.27;2.47;;;;;;;;;;5028938;28;20034;-60
2022/09/14 06:24:23;;;;;;;10.45;3.03;;;;;;;;;;5029130;28;20025;-59
2022/09/14 06:26:49;;;;;;;6.68;3.00;;;;;;;;;;5033630;28;20033;-59
2022/09/14 06:29:15;;;;;;;10.27;3.22;;;;;;;;;;5033080;28;20495;-60
2022/09/14 06:31:41;;;;;;;5.95;2.60;;;;;;;;;;5030365;28;20469;-60
2022/09/14 06:34:07;;;;;;;7.53;2.20;;;;;;;;;;5027606;28;20021;-59
2022/09/14 06:36:33;;;;;;;7.72;3.33;;;;;;;;;;5014725;28;20028;-60
2022/09/14 06:38:59;;;;;;;4.68;2.40;;;;;;;;;;5031723;28;20037;-59
2022/09/14 06:41:29;;;;;;;4.00;1.92;;;;;;;;;;5031841;28;20083;-60
2022/09/14 06:43:55;;;;;;;8.73;2.42;;;;;;;;;;5022776;28;20104;-60
2022/09/14 06:46:23;;;;;;;13.38;3.05;;;;;;;;;;5032950;28;20044;-60
2022/09/14 06:48:51;;;;;;;11.50;2.45;;;;;;;;;;5023072;28;20038;-60
2022/09/14 06:51:28;;;;;;;5.72;2.15;;;;;;;;;;5024214;28;20048;-60
2022/09/14 06:53:55;;;;;;;4.53;2.97;;;;;;;;;;5032381;28;20030;-60
2022/09/14 06:56:21;;;;;;;7.50;2.20;;;;;;;;;;5032969;28;20064;-60
2022/09/14 06:58:48;;;;;;;5.78;1.80;;;;;;;;;;5027775;28;20036;-59
2022/09/14 07:01:15;;;;;;;3.55;1.60;;;;;;;;;;5031822;28;20132;-59
2022/09/14 07:03:45;;;;;;;7.32;2.35;;;;;;;;;;5029526;28;20112;-59
2022/09/14 07:06:16;;;;;;;16.13;5.07;;;;;;;;;;5031807;28;20029;-59
2022/09/14 07:08:42;;;;;;;11.18;5.75;;;;;;;;;;5030896;28;20111;-59
2022/09/14 07:11:09;;;;;;;13.88;6.82;;;;;;;;;;5031725;28;20026;-59
2022/09/14 07:13:35;;;;;;;12.30;6.07;;;;;;;;;;5031600;28;20500;-60
2022/09/14 07:16:02;;;;;;;13.80;6.18;;;;;;;;;;5032445;28;20029;-60
2022/09/14 07:18:31;;;;;;;14.68;7.40;;;;;;;;;;5028875;28;20129;-60
2022/09/14 07:21:08;;;;;;;13.60;6.32;;;;;;;;;;5032174;28;20070;-59
2022/09/14 07:23:35;;;;;;;16.45;6.10;;;;;;;;;;5030990;28;20033;-59
2022/09/14 07:26:06;;;;;;;13.50;5.72;;;;;;;;;;5032239;28;20552;-58
2022/09/14 07:28:32;;;;;;;7.13;3.28;;;;;;;;;;5030531;28;20064;-59
2022/09/14 07:30:58;;;;;;;7.47;3.13;;;;;;;;;;5031475;28;20136;-60
2022/09/14 07:33:24;;;;;;;9.82;3.47;;;;;;;;;;5032286;28;20029;-60
2022/09/14 07:35:51;;;;;;;14.55;3.17;;;;;;;;;;5022695;28;20037;-60
2022/09/14 07:38:17;;;;;;;16.40;3.15;;;;;;;;;;5019581;28;20030;-60
2022/09/14 07:40:43;;;;;;;9.45;3.10;;;;;;;;;;5026033;28;20029;-60
2022/09/14 07:43:09;;;;;;;6.75;2.40;;;;;;;;;;5031151;28;20103;-59
2022/09/14 07:45:36;;;;;;;14.75;2.67;;;;;;;;;;5031053;28;20056;-61
2022/09/14 07:48:02;;;;;;;11.90;2.15;;;;;;;;;;5024702;28;20499;-59
2022/09/14 07:50:28;;;;;;;6.72;2.03;;;;;;;;;;5022802;28;20029;-59
2022/09/14 07:52:54;;;;;;;8.75;2.25;;;;;;;;;;5024461;28;20385;-59
2022/09/14 07:55:20;;;;;;;5.88;1.70;;;;;;;;;;5027373;28;20034;-59
2022/09/14 07:57:46;;;;;;;5.63;1.75;;;;;;;;;;5031449;28;20109;-60
2022/09/14 08:00:13;;;;;;;4.80;1.45;;;;;;;;;;5026182;28;20022;-60
2022/09/14 08:02:39;;;;;;;4.88;1.45;;;;;;;;;;5031749;28;20584;-60
2022/09/14 08:05:05;;;;;;;8.90;1.75;;;;;;;;;;5031631;28;20032;-59
2022/09/14 08:07:31;;;;;;;4.25;1.15;;;;;;;;;;5031061;28;20392;-61
2022/09/14 08:09:57;;;;;;;5.60;1.80;;;;;;;;;;5030736;28;20036;-60
2022/09/14 08:12:23;;;;;;;4.68;1.23;;;;;;;;;;5029514;28;20521;-60
2022/09/14 08:14:51;;;;;;;7.80;1.55;;;;;;;;;;5031360;28;20025;-60
2022/09/14 08:17:17;;;;;;;7.32;1.88;;;;;;;;;;5030568;28;20051;-60
2022/09/14 08:19:43;;;;;;;8.48;1.75;;;;;;;;;;5030313;28;20492;-60
2022/09/14 08:22:09;;;;;;;5.32;1.58;;;;;;;;;;5013524;28;20029;-61
2022/09/14 08:24:34;;;;;;;5.47;1.60;;;;;;;;;;5030108;28;20041;-60
2022/09/14 08:27:00;;;;;;;5.57;1.20;;;;;;;;;;5031022;28;20025;-60
2022/09/14 08:29:26;;;;;;;4.85;1.30;;;;;;;;;;5029869;28;20033;-60
2022/09/14 08:31:52;;;;;;;3.65;1.00;;;;;;;;;;5030068;28;20773;-60
2022/09/14 08:34:19;;;;;;;8.02;1.52;;;;;;;;;;5013243;28;20362;-61
2022/09/14 08:36:46;;;;;;;5.47;1.23;;;;;;;;;;5030845;28;20029;-60
2022/09/14 08:39:13;;;;;;;5.63;1.20;;;;;;;;;;5030943;28;20488;-61
2022/09/14 08:41:45;;;;;;;7.75;1.70;;;;;;;;;;5029848;28;20113;-61
2022/09/14 08:44:11;;;;;;;4.22;1.33;;;;;;;;;;5031039;28;20033;-60
2022/09/14 08:46:48;;;;;;;3.83;1.20;;;;;;;;;;5029080;28;20435;-61
2022/09/14 08:49:34;;;;;;;11.07;2.00;;;;;;;;;;5013028;28;20119;-60
2022/09/14 08:52:01;;;;;;;9.55;1.27;;;;;;;;;;5022180;28;20030;-60
2022/09/14 08:54:27;;;;;;;6.55;1.38;;;;;;;;;;5030578;28;20034;-60
2022/09/14 08:57:02;;;;;;;5.50;1.27;;;;;;;;;;5026806;28;20051;-61
2022/09/14 08:59:36;;;;;;;5.55;1.70;;;;;;;;;;5023019;28;20031;-61
2022/09/14 09:02:05;;;;;;;5.80;1.27;;;;;;;;;;5028113;28;20068;-60
2022/09/14 09:04:39;;;;;;;7.63;1.60;;;;;;;;;;5030660;28;20029;-60
2022/09/14 09:07:10;;;;;;;7.75;1.35;;;;;;;;;;5030697;28;20036;-60
2022/09/14 09:09:39;;;;;;;7.53;1.73;;;;;;;;;;5029167;28;20483;-61
2022/09/14 09:12:06;;;;;;;5.47;1.42;;;;;;;;;;5021657;28;20034;-60
2022/09/14 09:14:38;;;;;;;6.13;1.52;;;;;;;;;;5025948;28;20484;-60
2022/09/14 09:17:10;;;;;;;6.53;1.30;;;;;;;;;;5024612;28;20496;-60
2022/09/14 09:19:44;;;;;;;11.10;1.40;;;;;;;;;;5030801;28;20133;-61
2022/09/14 09:22:13;;;;;;;7.13;1.45;;;;;;;;;;5027594;28;20026;-60
2022/09/14 09:24:41;;;;;;;8.48;1.65;;;;;;;;;;5023683;28;20481;-61
2022/09/14 09:27:09;;;;;;;7.50;1.40;;;;;;;;;;5030203;28;20511;-60
2022/09/14 09:29:35;;;;;;;9.23;1.30;;;;;;;;;;5031316;28;20100;-61
2022/09/14 09:32:04;;;;;;;4.90;1.20;;;;;;;;;;5033422;28;20068;-61
2022/09/14 09:34:30;;;;;;;12.52;1.50;;;;;;;;;;5034527;28;20110;-61
2022/09/14 09:36:56;;;;;;;3.90;0.98;;;;;;;;;;5034037;28;20030;-60
2022/09/14 09:39:25;;;;;;;7.10;1.65;;;;;;;;;;5016577;28;20033;-60
2022/09/14 09:41:54;;;;;;;5.45;1.40;;;;;;;;;;5021237;28;20038;-60
2022/09/14 09:44:20;;;;;;;5.18;1.50;;;;;;;;;;5027161;28;20029;-60
2022/09/14 09:46:50;;;;;;;5.50;1.45;;;;;;;;;;5032608;28;20052;-61
2022/09/14 09:49:15;;;;;;;4.97;1.02;;;;;;;;;;5030610;28;20586;-60
2022/09/14 09:51:42;;;;;;;3.58;1.30;;;;;;;;;;5027174;28;20028;-61
2022/09/14 09:54:17;;;;;;;10.25;1.38;;;;;;;;;;5026337;28;20029;-60
2022/09/14 09:56:55;;;;;;;8.50;1.33;;;;;;;;;;5034128;28;20036;-61
2022/09/14 09:59:25;;;;;;;8.95;1.30;;;;;;;;;;5023337;28;20052;-61
2022/09/14 10:01:52;;;;;;;6.10;0.98;;;;;;;;;;5032773;28;20033;-61
2022/09/14 10:04:21;;;;;;;6.28;1.77;;;;;;;;;;5033871;28;20033;-60
2022/09/14 10:06:48;;;;;;;9.18;1.50;;;;;;;;;;5031246;28;20550;-60
2022/09/14 10:09:19;;;;;;;4.72;1.23;;;;;;;;;;5033328;28;20037;-60
2022/09/14 10:11:46;;;;;;;8.20;1.40;;;;;;;;;;5031850;28;20043;-61
2022/09/14 10:14:32;;;;;;;5.53;1.48;;;;;;;;;;5033751;28;20033;-60
2022/09/14 10:17:05;;;;;;;6.00;1.60;;;;;;;;;;5032768;28;20396;-60
2022/09/14 10:19:32;;;;;;;3.50;0.98;;;;;;;;;;5032535;28;20129;-61
2022/09/14 10:22:03;;;;;;;8.90;1.70;;;;;;;;;;5032162;28;20033;-60
2022/09/14 10:24:29;;;;;;;5.63;1.15;;;;;;;;;;5031101;28;20354;-60
2022/09/14 10:26:55;;;;;;;7.05;1.67;;;;;;;;;;5032256;28;20034;-61
2022/09/14 10:29:26;;;;;;;8.63;1.95;;;;;;;;;;5032522;28;20602;-60
2022/09/14 10:31:54;;;;;;;10.63;1.70;;;;;;;;;;5032229;28;20127;-60
2022/09/14 10:34:20;;;;;;;7.05;1.40;;;;;;;;;;5032205;28;20026;-60
2022/09/14 10:36:51;;;;;;;5.05;1.20;;;;;;;;;;5032160;28;20434;-61
2022/09/14 10:39:23;;;;;;;6.82;1.35;;;;;;;;;;5022240;28;20036;-61
2022/09/14 10:41:54;;;;;;;5.63;1.60;;;;;;;;;;5030293;28;20396;-60
2022/09/14 10:44:24;;;;;;;4.68;1.05;;;;;;;;;;5029004;28;20032;-60
2022/09/14 10:47:09;;;;;;;7.82;1.52;;;;;;;;;;5032551;28;20061;-60
2022/09/14 10:49:57;;;;;;;7.40;1.48;;;;;;;;;;5032305;28;20854;-60
2022/09/14 10:52:32;;;;;;;5.53;1.10;;;;;;;;;;5026423;28;20742;-61
2022/09/14 10:55:03;;;;;;;9.57;1.38;;;;;;;;;;5027425;28;20543;-60
2022/09/14 10:57:47;;;;;;;5.22;1.40;;;;;;;;;;5021779;28;20170;-60
2022/09/14 11:00:17;;;;;;;3.50;1.13;;;;;;;;;;5029399;28;20173;-60
2022/09/14 11:02:49;;;;;;;4.30;1.27;;;;;;;;;;5026538;28;20492;-60
2022/09/14 11:05:15;;;;;;;6.45;1.00;;;;;;;;;;5021405;28;20060;-60
2022/09/14 11:07:46;;;;;;;8.20;1.52;;;;;;;;;;5028731;28;20037;-60
2022/09/14 11:10:28;;;;;;;5.72;1.70;;;;;;;;;;5021145;28;20033;-60
2022/09/14 11:13:02;;;;;;;5.20;1.10;;;;;;;;;;5027856;28;20405;-60
2022/09/14 11:15:33;;;;;;;7.40;1.15;;;;;;;;;;5026994;28;20025;-59
2022/09/14 11:18:05;;;;;;;7.10;1.50;;;;;;;;;;5019241;28;20045;-60
2022/09/14 11:20:48;;;;;;;7.25;1.27;;;;;;;;;;5031838;28;20049;-60
2022/09/14 11:23:22;;;;;;;6.20;1.20;;;;;;;;;;5030668;28;20086;-60
2022/09/14 11:26:08;;;;;;;3.10;1.27;;;;;;;;;;5031469;28;20033;-60
2022/09/14 11:28:38;;;;;;;3.55;1.10;;;;;;;;;;5032178;28;20033;-61
2022/09/14 11:31:30;;;;;;;4.07;1.23;;;;;;;;;;5031681;28;20029;-60
2022/09/14 11:34:06;;;;;;;3.85;1.15;;;;;;;;;;5020100;28;20048;-61
2022/09/14 11:36:44;;;;;;;6.93;2.85;;;;;;;;;;5031802;28;20497;-60
2022/09/14 11:39:22;;;;;;;5.00;1.20;;;;;;;;;;5030705;28;20065;-60
2022/09/14 11:41:51;;;;;;;5.30;1.60;;;;;;;;;;5029799;28;20857;-60
2022/09/14 11:44:17;;;;;;;4.45;1.40;;;;;;;;;;5018645;28;20389;-60
2022/09/14 11:46:46;;;;;;;7.20;1.38;;;;;;;;;;5026148;28;20040;-60
2022/09/14 11:49:17;;;;;;;6.95;1.58;;;;;;;;;;5031711;28;20417;-60
2022/09/14 11:51:49;;;;;;;4.80;1.15;;;;;;;;;;5013702;28;20091;-60
2022/09/14 11:54:16;;;;;;;9.68;1.45;;;;;;;;;;5031105;28;20101;-60
2022/09/14 11:56:42;;;;;;;6.47;1.15;;;;;;;;;;5025732;28;20112;-60
2022/09/14 11:59:28;;;;;;;5.25;1.33;;;;;;;;;;5027142;28;20021;-60
2022/09/14 12:01:54;;;;;;;6.85;1.08;;;;;;;;;;5031396;28;20064;-59
2022/09/14 12:04:21;;;;;;;5.97;1.30;;;;;;;;;;5029931;28;20064;-59
2022/09/14 12:06:48;;;;;;;3.70;1.30;;;;;;;;;;5031122;28;20033;-60
2022/09/14 12:09:20;;;;;;;13.60;2.85;;;;;;;;;;5031235;28;20044;-59
2022/09/14 12:11:50;;;;;;;4.32;1.40;;;;;;;;;;5031059;28;20502;-60
2022/09/14 12:14:29;;;;;;;3.97;1.35;;;;;;;;;;5028970;28;20112;-60
2022/09/14 12:17:15;;;;;;;6.47;1.35;;;;;;;;;;5030908;28;20040;-61
2022/09/14 12:19:42;;;;;;;7.82;1.30;;;;;;;;;;5020412;28;20041;-60
2022/09/14 12:22:18;;;;;;;9.13;1.35;;;;;;;;;;5030461;28;20030;-59
2022/09/14 12:24:44;;;;;;;10.02;1.58;;;;;;;;;;5030595;28;20034;-60
2022/09/14 12:27:21;;;;;;;12.25;1.50;;;;;;;;;;5022285;28;20061;-60
2022/09/14 12:29:47;;;;;;;5.65;1.60;;;;;;;;;;5021273;28;20116;-60
2022/09/14 12:32:25;;;;;;;6.25;1.45;;;;;;;;;;5029878;28;20047;-60
2022/09/14 12:35:11;;;;;;;4.40;1.33;;;;;;;;;;5028650;28;20033;-59
2022/09/14 12:37:37;;;;;;;4.72;1.67;;;;;;;;;;5012670;28;20041;-60
2022/09/14 12:40:11;;;;;;;6.50;1.40;;;;;;;;;;5030131;28;20029;-60
2022/09/14 12:42:37;;;;;;;4.72;1.23;;;;;;;;;;5029994;28;20463;-60
2022/09/14 12:45:22;;;;;;;2.97;0.95;;;;;;;;;;5030192;28;20108;-60
2022/09/14 12:47:49;;;;;;;11.57;1.65;;;;;;;;;;5028928;28;20500;-59
2022/09/14 12:50:17;;;;;;;12.30;1.38;;;;;;;;;;5029692;28;20388;-60
2022/09/14 12:52:52;;;;;;;5.18;1.42;;;;;;;;;;5026958;28;20026;-60
2022/09/14 12:55:24;;;;;;;6.82;1.40;;;;;;;;;;5031037;28;20108;-61
2022/09/14 12:58:01;;;;;;;5.97;1.08;;;;;;;;;;5029998;28;20030;-60
2022/09/14 13:00:28;;;;;;;6.30;1.35;;;;;;;;;;5028760;28;20030;-60
2022/09/14 13:03:04;;;;;;;3.72;1.20;;;;;;;;;;5012083;28;20045;-58
2022/09/14 13:05:32;;;;;;;8.30;1.35;;;;;;;;;;5031928;28;20025;-59
2022/09/14 13:07:58;;;;;;;4.55;1.25;;;;;;;;;;5032248;28;20026;-61
2022/09/14 13:10:32;;;;;;;5.47;1.45;;;;;;;;;;5032608;28;20021;-60
2022/09/14 13:13:00;;;;;;;3.53;1.10;;;;;;;;;;5022920;28;20497;-60
2022/09/14 13:15:29;;;;;;;4.93;1.20;;;;;;;;;;5029113;28;20025;-60
2022/09/14 13:18:06;;;;;;;4.93;1.20;;;;;;;;;;4999646;28;977692;-60
2022/09/14 13:20:33;;;;;;;3.63;0.98;;;;;;;;;;5033310;28;20523;-59
2022/09/14 13:22:59;;;;;;;2.65;1.17;;;;;;;;;;5030551;28;20025;-60
2022/09/14 13:25:33;;;;;;;4.95;1.27;;;;;;;;;;5034620;28;20100;-60
2022/09/14 13:28:00;;;;;;;6.78;1.35;;;;;;;;;;5034383;28;20088;-60
2022/09/14 13:30:27;;;;;;;3.50;0.98;;;;;;;;;;5032310;28;20064;-60
2022/09/14 13:32:54;;;;;;;3.22;1.20;;;;;;;;;;5034072;28;20116;-59
2022/09/14 13:35:29;;;;;;;6.55;1.23;;;;;;;;;;5034385;28;20025;-59
2022/09/14 13:37:56;;;;;;;2.55;0.95;;;;;;;;;;5027060;28;20041;-59
2022/09/14 13:40:23;;;;;;;6.57;1.27;;;;;;;;;;5033650;28;20029;-59
2022/09/14 13:42:50;;;;;;;6.38;1.65;;;;;;;;;;5034284;28;20100;-59
2022/09/14 13:45:16;;;;;;;3.72;1.20;;;;;;;;;;5033095;28;20503;-60
2022/09/14 13:47:42;;;;;;;8.20;1.58;;;;;;;;;;5034025;28;20029;-60
2022/09/14 13:50:08;;;;;;;5.30;1.42;;;;;;;;;;5033671;28;20026;-60
2022/09/14 13:52:36;;;;;;;6.78;1.13;;;;;;;;;;5034212;28;20045;-60
2022/09/14 13:55:14;;;;;;;5.05;1.50;;;;;;;;;;5033139;28;20088;-60
2022/09/14 13:58:00;;;;;;;5.65;1.35;;;;;;;;;;5006526;28;20507;-60
2022/09/14 14:00:26;;;;;;;4.53;1.50;;;;;;;;;;5033524;28;20052;-60
2022/09/14 14:02:52;;;;;;;4.57;1.05;;;;;;;;;;5032418;28;20638;-59
2022/09/14 14:05:39;;;;;;;5.68;1.30;;;;;;;;;;5033555;28;20029;-60
2022/09/14 14:08:25;;;;;;;5.15;1.23;;;;;;;;;;5024604;28;20167;-60
2022/09/14 14:10:52;;;;;;;5.38;1.48;;;;;;;;;;5031870;28;20091;-60
2022/09/14 14:13:30;;;;;;;3.80;1.20;;;;;;;;;;5033654;28;20030;-60
2022/09/14 14:16:16;;;;;;;9.23;1.50;;;;;;;;;;5033129;28;20358;-59
2022/09/14 14:18:43;;;;;;;5.43;1.20;;;;;;;;;;5028081;28;20076;-60
2022/09/14 14:21:13;;;;;;;6.72;1.20;;;;;;;;;;5026060;28;20029;-60
2022/09/14 14:23:41;;;;;;;10.82;1.55;;;;;;;;;;5020567;28;20520;-60
2022/09/14 14:26:08;;;;;;;10.35;1.10;;;;;;;;;;5030938;28;20029;-60
2022/09/14 14:28:35;;;;;;;5.35;1.35;;;;;;;;;;5028606;28;20026;-60
2022/09/14 14:31:01;;;;;;;5.90;1.38;;;;;;;;;;5032077;28;20036;-59
2022/09/14 14:33:28;;;;;;;5.03;1.25;;;;;;;;;;5033284;28;20022;-60
2022/09/14 14:35:55;;;;;;;9.32;1.70;;;;;;;;;;5031715;28;20053;-59
2022/09/14 14:38:22;;;;;;;6.00;1.17;;;;;;;;;;5032910;28;20017;-60
2022/09/14 14:40:49;;;;;;;4.82;0.98;;;;;;;;;;5032584;28;20025;-59
2022/09/14 14:43:20;;;;;;;5.55;1.02;;;;;;;;;;5032127;28;20023;-60
2022/09/14 14:45:46;;;;;;;5.35;1.30;;;;;;;;;;5033133;28;20040;-60
2022/09/14 14:48:12;;;;;;;7.78;1.23;;;;;;;;;;5032656;28;20025;-59
2022/09/14 14:50:38;;;;;;;3.63;1.25;;;;;;;;;;5029301;28;20110;-59
2022/09/14 14:53:04;;;;;;;2.30;1.02;;;;;;;;;;5029167;28;20029;-61
2022/09/14 14:55:31;;;;;;;8.35;1.40;;;;;;;;;;5023506;28;20025;-60